sensor_id;sensor_type;location;lat;lon;timestamp;temperature;humidity
21508;DHT22;10915;54.352;9.074;2024-03-08T00:00:15;1.10;99.90
21508;DHT22;10915;54.352;9.074;2024-03-08T00:02:43;1.10;99.90
21508;DHT22;10915;54.352;9.074;2024-03-08T00:05:09;1.00;99.90
21508;DHT22;10915;54.352;9.074;2024-03-08T00:07:35;0.90;99.90
21508;DHT22;10915;54.352;9.074;2024-03-08T00:10:05;1.00;99.90
21508;DHT22;10915;54.352;9.074;2024-03-08T00:12:31;0.90;99.90
21508;DHT22;10915;54.352;9.074;2024-03-08T00:14:57;0.90;99.90
21508;DHT22;10915;54.352;9.074;2024-03-08T00:17:22;0.90;99.90
21508;DHT22;10915;54.352;9.074;2024-03-08T00:19:49;0.90;99.90
21508;DHT22;10915;54.352;9.074;2024-03-08T00:22:15;0.90;99.90
21508;DHT22;10915;54.352;9.074;2024-03-08T00:24:41;0.90;99.90
21508;DHT22;10915;54.352;9.074;2024-03-08T00:27:07;0.90;99.90
21508;DHT22;10915;54.352;9.074;2024-03-08T00:29:34;0.90;99.90
21508;DHT22;10915;54.352;9.074;2024-03-08T00:32:00;0.90;99.90
21508;DHT22;10915;54.352;9.074;2024-03-08T00:34:26;0.90;99.90
21508;DHT22;10915;54.352;9.074;2024-03-08T00:36:52;0.90;99.90
21508;DHT22;10915;54.352;9.074;2024-03-08T00:39:18;0.90;99.90
21508;DHT22;10915;54.352;9.074;2024-03-08T00:41:46;0.90;99.90
21508;DHT22;10915;54.352;9.074;2024-03-08T00:44:12;0.80;99.90
21508;DHT22;10915;54.352;9.074;2024-03-08T00:46:37;0.90;99.90
21508;DHT22;10915;54.352;9.074;2024-03-08T00:49:03;0.80;99.90
21508;DHT22;10915;54.352;9.074;2024-03-08T00:51:29;0.80;99.90
21508;DHT22;10915;54.352;9.074;2024-03-08T00:53:54;0.80;99.90
21508;DHT22;10915;54.352;9.074;2024-03-08T00:56:20;0.80;99.90
21508;DHT22;10915;54.352;9.074;2024-03-08T00:58:46;0.80;99.90
21508;DHT22;10915;54.352;9.074;2024-03-08T01:01:13;0.80;99.90
21508;DHT22;10915;54.352;9.074;2024-03-08T01:03:43;0.80;99.90
21508;DHT22;10915;54.352;9.074;2024-03-08T01:06:09;0.70;99.90
21508;DHT22;10915;54.352;9.074;2024-03-08T01:08:34;0.70;99.90
21508;DHT22;10915;54.352;9.074;2024-03-08T01:11:00;0.70;99.90
21508;DHT22;10915;54.352;9.074;2024-03-08T01:13:25;0.70;99.90
21508;DHT22;10915;54.352;9.074;2024-03-08T01:15:51;0.70;99.90
21508;DHT22;10915;54.352;9.074;2024-03-08T01:18:17;0.70;99.90
21508;DHT22;10915;54.352;9.074;2024-03-08T01:20:42;0.70;99.90
21508;DHT22;10915;54.352;9.074;2024-03-08T01:23:08;0.70;99.90
21508;DHT22;10915;54.352;9.074;2024-03-08T01:25:34;0.70;99.90
21508;DHT22;10915;54.352;9.074;2024-03-08T01:27:59;0.70;99.90
21508;DHT22;10915;54.352;9.074;2024-03-08T01:30:25;0.70;99.90
21508;DHT22;10915;54.352;9.074;2024-03-08T01:32:51;0.70;99.90
21508;DHT22;10915;54.352;9.074;2024-03-08T01:35:16;0.60;99.90
21508;DHT22;10915;54.352;9.074;2024-03-08T01:37:43;0.60;99.90
21508;DHT22;10915;54.352;9.074;2024-03-08T01:40:09;0.60;99.90
21508;DHT22;10915;54.352;9.074;2024-03-08T01:42:35;0.60;99.90
21508;DHT22;10915;54.352;9.074;2024-03-08T01:45:05;0.60;99.90
21508;DHT22;10915;54.352;9.074;2024-03-08T01:47:31;0.60;99.90
21508;DHT22;10915;54.352;9.074;2024-03-08T01:49:59;0.70;99.90
21508;DHT22;10915;54.352;9.074;2024-03-08T01:52:27;0.70;99.90
21508;DHT22;10915;54.352;9.074;2024-03-08T01:54:53;0.70;99.90
21508;DHT22;10915;54.352;9.074;2024-03-08T01:57:19;0.70;99.90
21508;DHT22;10915;54.352;9.074;2024-03-08T01:59:45;0.70;99.90
21508;DHT22;10915;54.352;9.074;2024-03-08T02:02:11;0.60;99.90
21508;DHT22;10915;54.352;9.074;2024-03-08T02:04:40;0.60;99.90
21508;DHT22;10915;54.352;9.074;2024-03-08T02:07:06;0.60;99.90
21508;DHT22;10915;54.352;9.074;2024-03-08T02:09:31;0.60;99.90
21508;DHT22;10915;54.352;9.074;2024-03-08T02:11:57;0.60;99.90
21508;DHT22;10915;54.352;9.074;2024-03-08T02:14:23;0.60;99.90
21508;DHT22;10915;54.352;9.074;2024-03-08T02:16:49;0.50;99.90
21508;DHT22;10915;54.352;9.074;2024-03-08T02:19:16;0.50;99.90
21508;DHT22;10915;54.352;9.074;2024-03-08T02:21:42;0.50;99.90
21508;DHT22;10915;54.352;9.074;2024-03-08T02:24:09;0.50;99.90
21508;DHT22;10915;54.352;9.074;2024-03-08T02:26:35;0.40;99.90
21508;DHT22;10915;54.352;9.074;2024-03-08T02:29:01;0.40;99.90
21508;DHT22;10915;54.352;9.074;2024-03-08T02:31:27;0.40;99.90
21508;DHT22;10915;54.352;9.074;2024-03-08T02:33:52;0.40;99.90
21508;DHT22;10915;54.352;9.074;2024-03-08T02:36:18;0.30;99.90
21508;DHT22;10915;54.352;9.074;2024-03-08T02:38:44;0.30;99.90
21508;DHT22;10915;54.352;9.074;2024-03-08T02:41:09;0.30;99.90
21508;DHT22;10915;54.352;9.074;2024-03-08T02:43:36;0.40;99.90
21508;DHT22;10915;54.352;9.074;2024-03-08T02:46:01;0.30;99.90
21508;DHT22;10915;54.352;9.074;2024-03-08T02:48:27;0.30;99.90
21508;DHT22;10915;54.352;9.074;2024-03-08T02:50:52;0.30;99.90
21508;DHT22;10915;54.352;9.074;2024-03-08T02:53:19;0.30;99.90
21508;DHT22;10915;54.352;9.074;2024-03-08T02:55:45;0.20;99.90
21508;DHT22;10915;54.352;9.074;2024-03-08T02:58:10;0.20;99.90
21508;DHT22;10915;54.352;9.074;2024-03-08T03:00:37;0.20;99.90
21508;DHT22;10915;54.352;9.074;2024-03-08T03:03:03;0.20;99.90
21508;DHT22;10915;54.352;9.074;2024-03-08T03:05:29;0.20;99.90
21508;DHT22;10915;54.352;9.074;2024-03-08T03:07:55;0.20;99.90
21508;DHT22;10915;54.352;9.074;2024-03-08T03:10:21;0.10;99.90
21508;DHT22;10915;54.352;9.074;2024-03-08T03:12:47;0.10;99.90
21508;DHT22;10915;54.352;9.074;2024-03-08T03:15:17;0.10;99.90
21508;DHT22;10915;54.352;9.074;2024-03-08T03:17:47;0.10;99.90
21508;DHT22;10915;54.352;9.074;2024-03-08T03:20:13;0.10;99.90
21508;DHT22;10915;54.352;9.074;2024-03-08T03:22:40;0.20;99.90
21508;DHT22;10915;54.352;9.074;2024-03-08T03:25:07;0.20;99.90
21508;DHT22;10915;54.352;9.074;2024-03-08T03:27:33;0.20;99.90
21508;DHT22;10915;54.352;9.074;2024-03-08T03:29:59;0.20;99.90
21508;DHT22;10915;54.352;9.074;2024-03-08T03:32:44;0.20;99.90
21508;DHT22;10915;54.352;9.074;2024-03-08T03:35:13;0.20;99.90
21508;DHT22;10915;54.352;9.074;2024-03-08T03:37:38;0.30;99.90
21508;DHT22;10915;54.352;9.074;2024-03-08T03:40:05;0.30;99.90
21508;DHT22;10915;54.352;9.074;2024-03-08T03:42:31;0.30;99.90
21508;DHT22;10915;54.352;9.074;2024-03-08T03:44:57;0.30;99.90
21508;DHT22;10915;54.352;9.074;2024-03-08T03:47:23;0.30;99.90
21508;DHT22;10915;54.352;9.074;2024-03-08T03:49:48;0.30;99.90
21508;DHT22;10915;54.352;9.074;2024-03-08T03:52:14;0.30;99.90
21508;DHT22;10915;54.352;9.074;2024-03-08T03:54:40;0.40;99.90
21508;DHT22;10915;54.352;9.074;2024-03-08T03:57:06;0.40;99.90
21508;DHT22;10915;54.352;9.074;2024-03-08T03:59:33;0.40;99.90
21508;DHT22;10915;54.352;9.074;2024-03-08T04:01:58;0.40;99.90
21508;DHT22;10915;54.352;9.074;2024-03-08T04:04:24;0.40;99.90
21508;DHT22;10915;54.352;9.074;2024-03-08T04:06:50;0.40;99.90
21508;DHT22;10915;54.352;9.074;2024-03-08T04:09:16;0.50;99.90
21508;DHT22;10915;54.352;9.074;2024-03-08T04:11:44;0.50;99.90
21508;DHT22;10915;54.352;9.074;2024-03-08T04:14:10;0.50;99.90
21508;DHT22;10915;54.352;9.074;2024-03-08T04:16:36;0.60;99.90
21508;DHT22;10915;54.352;9.074;2024-03-08T04:19:02;0.60;99.90
21508;DHT22;10915;54.352;9.074;2024-03-08T04:21:30;0.60;99.90
21508;DHT22;10915;54.352;9.074;2024-03-08T04:23:56;0.60;99.90
21508;DHT22;10915;54.352;9.074;2024-03-08T04:26:22;0.60;99.90
21508;DHT22;10915;54.352;9.074;2024-03-08T04:28:47;0.60;99.90
21508;DHT22;10915;54.352;9.074;2024-03-08T04:31:13;0.60;99.90
21508;DHT22;10915;54.352;9.074;2024-03-08T04:33:38;0.60;99.90
21508;DHT22;10915;54.352;9.074;2024-03-08T04:36:04;0.60;99.90
21508;DHT22;10915;54.352;9.074;2024-03-08T04:38:30;0.60;99.90
21508;DHT22;10915;54.352;9.074;2024-03-08T04:40:57;0.60;99.90
21508;DHT22;10915;54.352;9.074;2024-03-08T04:43:23;0.60;99.90
21508;DHT22;10915;54.352;9.074;2024-03-08T04:45:52;0.60;99.90
21508;DHT22;10915;54.352;9.074;2024-03-08T04:48:17;0.60;99.90
21508;DHT22;10915;54.352;9.074;2024-03-08T04:50:43;0.60;99.90
21508;DHT22;10915;54.352;9.074;2024-03-08T04:53:10;0.60;99.90
21508;DHT22;10915;54.352;9.074;2024-03-08T04:55:35;0.60;99.90
21508;DHT22;10915;54.352;9.074;2024-03-08T04:58:03;0.60;99.90
21508;DHT22;10915;54.352;9.074;2024-03-08T05:00:29;0.60;99.90
21508;DHT22;10915;54.352;9.074;2024-03-08T05:02:55;0.60;99.90
21508;DHT22;10915;54.352;9.074;2024-03-08T05:05:21;0.60;99.90
21508;DHT22;10915;54.352;9.074;2024-03-08T05:07:48;0.60;99.90
21508;DHT22;10915;54.352;9.074;2024-03-08T05:10:13;0.70;99.90
21508;DHT22;10915;54.352;9.074;2024-03-08T05:12:45;0.80;99.90
21508;DHT22;10915;54.352;9.074;2024-03-08T05:15:11;0.90;99.90
21508;DHT22;10915;54.352;9.074;2024-03-08T05:17:37;0.90;99.90
21508;DHT22;10915;54.352;9.074;2024-03-08T05:20:02;1.00;99.90
21508;DHT22;10915;54.352;9.074;2024-03-08T05:22:29;1.00;99.90
21508;DHT22;10915;54.352;9.074;2024-03-08T05:24:55;1.10;99.90
21508;DHT22;10915;54.352;9.074;2024-03-08T05:27:21;1.10;99.90
21508;DHT22;10915;54.352;9.074;2024-03-08T05:29:46;1.10;99.90
21508;DHT22;10915;54.352;9.074;2024-03-08T05:32:12;1.10;99.90
21508;DHT22;10915;54.352;9.074;2024-03-08T05:34:38;1.20;99.90
21508;DHT22;10915;54.352;9.074;2024-03-08T05:37:04;1.20;99.90
21508;DHT22;10915;54.352;9.074;2024-03-08T05:39:29;1.20;99.90
21508;DHT22;10915;54.352;9.074;2024-03-08T05:41:55;1.20;99.90
21508;DHT22;10915;54.352;9.074;2024-03-08T05:44:21;1.20;99.90
21508;DHT22;10915;54.352;9.074;2024-03-08T05:46:47;1.20;99.90
21508;DHT22;10915;54.352;9.074;2024-03-08T05:49:13;1.20;99.90
21508;DHT22;10915;54.352;9.074;2024-03-08T05:51:40;1.30;99.90
21508;DHT22;10915;54.352;9.074;2024-03-08T05:54:07;1.30;99.90
21508;DHT22;10915;54.352;9.074;2024-03-08T05:56:37;1.30;99.90
21508;DHT22;10915;54.352;9.074;2024-03-08T05:59:03;1.30;99.90
21508;DHT22;10915;54.352;9.074;2024-03-08T06:01:30;1.30;99.90
21508;DHT22;10915;54.352;9.074;2024-03-08T06:04:02;1.30;99.90
21508;DHT22;10915;54.352;9.074;2024-03-08T06:06:28;1.30;99.90
21508;DHT22;10915;54.352;9.074;2024-03-08T06:08:54;1.30;99.90
21508;DHT22;10915;54.352;9.074;2024-03-08T06:11:22;1.30;99.90
21508;DHT22;10915;54.352;9.074;2024-03-08T06:13:48;1.30;99.90
21508;DHT22;10915;54.352;9.074;2024-03-08T06:16:15;1.30;99.90
21508;DHT22;10915;54.352;9.074;2024-03-08T06:18:41;1.40;99.90
21508;DHT22;10915;54.352;9.074;2024-03-08T06:21:07;1.40;99.90
21508;DHT22;10915;54.352;9.074;2024-03-08T06:23:33;1.40;99.90
21508;DHT22;10915;54.352;9.074;2024-03-08T06:25:58;1.40;99.90
21508;DHT22;10915;54.352;9.074;2024-03-08T06:28:24;1.40;99.90
21508;DHT22;10915;54.352;9.074;2024-03-08T06:30:50;1.40;99.90
21508;DHT22;10915;54.352;9.074;2024-03-08T06:33:17;1.40;99.90
21508;DHT22;10915;54.352;9.074;2024-03-08T06:35:43;1.40;99.90
21508;DHT22;10915;54.352;9.074;2024-03-08T06:38:09;1.50;99.90
21508;DHT22;10915;54.352;9.074;2024-03-08T06:40:34;1.50;99.90
21508;DHT22;10915;54.352;9.074;2024-03-08T06:43:00;1.50;99.90
21508;DHT22;10915;54.352;9.074;2024-03-08T06:45:25;1.50;99.90
21508;DHT22;10915;54.352;9.074;2024-03-08T06:47:51;1.60;99.90
21508;DHT22;10915;54.352;9.074;2024-03-08T06:50:17;1.60;99.90
21508;DHT22;10915;54.352;9.074;2024-03-08T06:52:43;1.60;99.90
21508;DHT22;10915;54.352;9.074;2024-03-08T06:55:09;1.70;99.90
21508;DHT22;10915;54.352;9.074;2024-03-08T06:57:39;1.70;99.90
21508;DHT22;10915;54.352;9.074;2024-03-08T07:00:07;1.70;99.90
21508;DHT22;10915;54.352;9.074;2024-03-08T07:02:35;1.80;99.90
21508;DHT22;10915;54.352;9.074;2024-03-08T07:05:01;1.80;99.90
21508;DHT22;10915;54.352;9.074;2024-03-08T07:07:27;1.90;99.90
21508;DHT22;10915;54.352;9.074;2024-03-08T07:09:52;1.90;99.90
21508;DHT22;10915;54.352;9.074;2024-03-08T07:12:18;1.90;99.90
21508;DHT22;10915;54.352;9.074;2024-03-08T07:14:46;2.00;99.90
21508;DHT22;10915;54.352;9.074;2024-03-08T07:17:12;2.00;99.90
21508;DHT22;10915;54.352;9.074;2024-03-08T07:19:38;2.00;99.90
21508;DHT22;10915;54.352;9.074;2024-03-08T07:22:04;2.10;99.90
21508;DHT22;10915;54.352;9.074;2024-03-08T07:24:30;2.10;99.90
21508;DHT22;10915;54.352;9.074;2024-03-08T07:27:05;2.10;99.90
21508;DHT22;10915;54.352;9.074;2024-03-08T07:29:34;2.20;99.90
21508;DHT22;10915;54.352;9.074;2024-03-08T07:32:00;2.20;99.90
21508;DHT22;10915;54.352;9.074;2024-03-08T07:34:26;2.20;99.90
21508;DHT22;10915;54.352;9.074;2024-03-08T07:36:51;2.30;99.90
21508;DHT22;10915;54.352;9.074;2024-03-08T07:39:17;2.30;99.90
21508;DHT22;10915;54.352;9.074;2024-03-08T07:41:43;2.30;99.90
21508;DHT22;10915;54.352;9.074;2024-03-08T07:44:08;2.30;99.90
21508;DHT22;10915;54.352;9.074;2024-03-08T07:46:34;2.40;99.90
21508;DHT22;10915;54.352;9.074;2024-03-08T07:49:00;2.40;99.90
21508;DHT22;10915;54.352;9.074;2024-03-08T07:51:26;2.50;99.90
21508;DHT22;10915;54.352;9.074;2024-03-08T07:53:51;2.40;99.90
21508;DHT22;10915;54.352;9.074;2024-03-08T07:56:17;2.50;99.90
21508;DHT22;10915;54.352;9.074;2024-03-08T07:58:44;2.50;99.90
21508;DHT22;10915;54.352;9.074;2024-03-08T08:01:17;2.50;99.90
21508;DHT22;10915;54.352;9.074;2024-03-08T08:03:43;2.50;99.90
21508;DHT22;10915;54.352;9.074;2024-03-08T08:06:08;2.60;99.90
21508;DHT22;10915;54.352;9.074;2024-03-08T08:08:35;2.70;99.90
21508;DHT22;10915;54.352;9.074;2024-03-08T08:11:02;2.80;99.90
21508;DHT22;10915;54.352;9.074;2024-03-08T08:13:28;2.90;99.90
21508;DHT22;10915;54.352;9.074;2024-03-08T08:15:57;2.90;99.90
21508;DHT22;10915;54.352;9.074;2024-03-08T08:18:23;3.00;99.90
21508;DHT22;10915;54.352;9.074;2024-03-08T08:20:51;3.00;99.90
21508;DHT22;10915;54.352;9.074;2024-03-08T08:23:17;3.10;99.90
21508;DHT22;10915;54.352;9.074;2024-03-08T08:25:45;3.30;99.90
21508;DHT22;10915;54.352;9.074;2024-03-08T08:28:11;3.50;99.90
21508;DHT22;10915;54.352;9.074;2024-03-08T08:30:38;3.60;99.90
21508;DHT22;10915;54.352;9.074;2024-03-08T08:33:04;3.70;99.90
21508;DHT22;10915;54.352;9.074;2024-03-08T08:35:31;3.70;99.90
21508;DHT22;10915;54.352;9.074;2024-03-08T08:37:57;3.80;99.90
21508;DHT22;10915;54.352;9.074;2024-03-08T08:40:24;3.70;99.90
21508;DHT22;10915;54.352;9.074;2024-03-08T08:42:51;3.60;99.90
21508;DHT22;10915;54.352;9.074;2024-03-08T08:45:18;3.60;99.90
21508;DHT22;10915;54.352;9.074;2024-03-08T08:47:49;3.60;99.90
21508;DHT22;10915;54.352;9.074;2024-03-08T08:50:16;3.60;99.90
21508;DHT22;10915;54.352;9.074;2024-03-08T08:52:48;3.50;99.90
21508;DHT22;10915;54.352;9.074;2024-03-08T08:55:14;3.50;99.90
21508;DHT22;10915;54.352;9.074;2024-03-08T08:57:43;3.60;99.90
21508;DHT22;10915;54.352;9.074;2024-03-08T09:00:09;3.70;99.90
21508;DHT22;10915;54.352;9.074;2024-03-08T09:02:40;3.90;99.90
21508;DHT22;10915;54.352;9.074;2024-03-08T09:05:07;4.00;99.90
21508;DHT22;10915;54.352;9.074;2024-03-08T09:07:35;4.20;99.90
21508;DHT22;10915;54.352;9.074;2024-03-08T09:10:01;4.40;99.90
21508;DHT22;10915;54.352;9.074;2024-03-08T09:12:26;4.60;99.90
21508;DHT22;10915;54.352;9.074;2024-03-08T09:14:52;4.90;99.90
21508;DHT22;10915;54.352;9.074;2024-03-08T09:17:18;5.20;99.90
21508;DHT22;10915;54.352;9.074;2024-03-08T09:19:49;5.50;99.90
21508;DHT22;10915;54.352;9.074;2024-03-08T09:22:15;5.90;99.90
21508;DHT22;10915;54.352;9.074;2024-03-08T09:24:41;6.10;99.90
21508;DHT22;10915;54.352;9.074;2024-03-08T09:27:08;6.00;99.90
21508;DHT22;10915;54.352;9.074;2024-03-08T09:29:35;5.70;99.90
21508;DHT22;10915;54.352;9.074;2024-03-08T09:32:01;5.80;99.90
21508;DHT22;10915;54.352;9.074;2024-03-08T09:34:26;5.80;99.90
21508;DHT22;10915;54.352;9.074;2024-03-08T09:36:52;5.70;99.90
21508;DHT22;10915;54.352;9.074;2024-03-08T09:39:18;5.70;99.90
21508;DHT22;10915;54.352;9.074;2024-03-08T09:41:46;5.90;99.90
21508;DHT22;10915;54.352;9.074;2024-03-08T09:44:16;6.00;99.90
21508;DHT22;10915;54.352;9.074;2024-03-08T09:46:42;5.90;99.90
21508;DHT22;10915;54.352;9.074;2024-03-08T09:49:08;6.10;99.90
21508;DHT22;10915;54.352;9.074;2024-03-08T09:51:34;6.20;99.90
21508;DHT22;10915;54.352;9.074;2024-03-08T09:54:04;6.40;99.90
21508;DHT22;10915;54.352;9.074;2024-03-08T09:56:35;6.40;99.90
21508;DHT22;10915;54.352;9.074;2024-03-08T09:59:01;6.60;99.90
21508;DHT22;10915;54.352;9.074;2024-03-08T10:01:46;6.70;99.90
21508;DHT22;10915;54.352;9.074;2024-03-08T10:04:11;6.60;99.90
21508;DHT22;10915;54.352;9.074;2024-03-08T10:06:39;6.50;99.90
21508;DHT22;10915;54.352;9.074;2024-03-08T10:09:05;6.40;99.90
21508;DHT22;10915;54.352;9.074;2024-03-08T10:11:33;6.40;99.90
21508;DHT22;10915;54.352;9.074;2024-03-08T10:13:59;6.50;99.90
21508;DHT22;10915;54.352;9.074;2024-03-08T10:16:27;6.50;99.90
21508;DHT22;10915;54.352;9.074;2024-03-08T10:18:52;6.50;99.90
21508;DHT22;10915;54.352;9.074;2024-03-08T10:21:19;6.40;99.90
21508;DHT22;10915;54.352;9.074;2024-03-08T10:23:45;6.50;99.90
21508;DHT22;10915;54.352;9.074;2024-03-08T10:26:17;6.60;99.90
21508;DHT22;10915;54.352;9.074;2024-03-08T10:28:48;6.60;99.90
21508;DHT22;10915;54.352;9.074;2024-03-08T10:31:18;6.70;99.90
21508;DHT22;10915;54.352;9.074;2024-03-08T10:33:45;6.70;99.90
21508;DHT22;10915;54.352;9.074;2024-03-08T10:36:13;6.80;99.90
21508;DHT22;10915;54.352;9.074;2024-03-08T10:38:40;6.90;99.90
21508;DHT22;10915;54.352;9.074;2024-03-08T10:41:07;6.90;99.90
21508;DHT22;10915;54.352;9.074;2024-03-08T10:49:16;7.30;99.90
21508;DHT22;10915;54.352;9.074;2024-03-08T10:51:43;7.30;99.90
21508;DHT22;10915;54.352;9.074;2024-03-08T10:54:10;7.40;99.90
21508;DHT22;10915;54.352;9.074;2024-03-08T10:56:37;7.50;99.90
21508;DHT22;10915;54.352;9.074;2024-03-08T10:59:03;7.60;99.90
21508;DHT22;10915;54.352;9.074;2024-03-08T11:01:30;7.60;99.90
21508;DHT22;10915;54.352;9.074;2024-03-08T11:03:56;7.70;99.90
21508;DHT22;10915;54.352;9.074;2024-03-08T11:11:48;7.70;99.90
21508;DHT22;10915;54.352;9.074;2024-03-08T11:14:45;7.80;99.90
21508;DHT22;10915;54.352;9.074;2024-03-08T11:17:15;7.70;99.90
21508;DHT22;10915;54.352;9.074;2024-03-08T11:19:47;7.80;99.90
21508;DHT22;10915;54.352;9.074;2024-03-08T11:22:36;7.80;99.90
21508;DHT22;10915;54.352;9.074;2024-03-08T11:25:04;8.00;99.90
21508;DHT22;10915;54.352;9.074;2024-03-08T11:27:36;8.00;99.90
21508;DHT22;10915;54.352;9.074;2024-03-08T11:30:06;7.90;99.90
21508;DHT22;10915;54.352;9.074;2024-03-08T11:32:52;8.10;99.90
21508;DHT22;10915;54.352;9.074;2024-03-08T11:35:22;8.10;99.90
21508;DHT22;10915;54.352;9.074;2024-03-08T11:37:50;8.00;99.90
21508;DHT22;10915;54.352;9.074;2024-03-08T11:40:16;8.00;99.90
21508;DHT22;10915;54.352;9.074;2024-03-08T11:42:48;8.00;99.90
21508;DHT22;10915;54.352;9.074;2024-03-08T11:45:15;8.10;99.90
21508;DHT22;10915;54.352;9.074;2024-03-08T11:47:44;8.00;99.90
21508;DHT22;10915;54.352;9.074;2024-03-08T11:50:16;8.00;99.90
21508;DHT22;10915;54.352;9.074;2024-03-08T11:52:44;8.00;99.90
21508;DHT22;10915;54.352;9.074;2024-03-08T11:55:11;8.00;99.90
21508;DHT22;10915;54.352;9.074;2024-03-08T11:57:38;7.90;99.90
21508;DHT22;10915;54.352;9.074;2024-03-08T12:00:04;7.90;99.90
21508;DHT22;10915;54.352;9.074;2024-03-08T12:02:33;7.90;99.90
21508;DHT22;10915;54.352;9.074;2024-03-08T12:05:04;7.90;99.90
21508;DHT22;10915;54.352;9.074;2024-03-08T12:07:31;8.10;99.90
21508;DHT22;10915;54.352;9.074;2024-03-08T12:10:22;8.10;99.90
21508;DHT22;10915;54.352;9.074;2024-03-08T12:12:58;8.20;99.90
21508;DHT22;10915;54.352;9.074;2024-03-08T12:15:41;8.10;99.90
21508;DHT22;10915;54.352;9.074;2024-03-08T12:18:11;8.10;99.90
21508;DHT22;10915;54.352;9.074;2024-03-08T12:20:38;8.10;99.90
21508;DHT22;10915;54.352;9.074;2024-03-08T12:23:04;8.10;99.90
21508;DHT22;10915;54.352;9.074;2024-03-08T12:25:32;8.10;99.90
21508;DHT22;10915;54.352;9.074;2024-03-08T12:28:11;8.10;99.90
21508;DHT22;10915;54.352;9.074;2024-03-08T12:30:48;8.20;99.90
21508;DHT22;10915;54.352;9.074;2024-03-08T12:33:14;8.10;99.90
21508;DHT22;10915;54.352;9.074;2024-03-08T12:35:40;8.20;99.90
21508;DHT22;10915;54.352;9.074;2024-03-08T12:38:07;8.10;99.90
21508;DHT22;10915;54.352;9.074;2024-03-08T12:40:34;8.20;99.90
21508;DHT22;10915;54.352;9.074;2024-03-08T12:43:01;8.20;99.90
21508;DHT22;10915;54.352;9.074;2024-03-08T12:45:28;8.30;99.90
21508;DHT22;10915;54.352;9.074;2024-03-08T12:47:54;8.30;99.90
21508;DHT22;10915;54.352;9.074;2024-03-08T12:50:21;8.40;99.90
21508;DHT22;10915;54.352;9.074;2024-03-08T12:52:47;8.30;99.90
21508;DHT22;10915;54.352;9.074;2024-03-08T12:55:14;8.40;99.90
21508;DHT22;10915;54.352;9.074;2024-03-08T12:57:42;8.30;99.90
21508;DHT22;10915;54.352;9.074;2024-03-08T13:00:08;8.40;99.90
21508;DHT22;10915;54.352;9.074;2024-03-08T13:02:39;8.50;99.90
21508;DHT22;10915;54.352;9.074;2024-03-08T13:05:05;8.50;99.90
21508;DHT22;10915;54.352;9.074;2024-03-08T13:07:32;8.40;99.90
21508;DHT22;10915;54.352;9.074;2024-03-08T13:09:59;8.40;99.90
21508;DHT22;10915;54.352;9.074;2024-03-08T13:12:25;8.40;99.90
21508;DHT22;10915;54.352;9.074;2024-03-08T13:14:51;8.40;99.90
21508;DHT22;10915;54.352;9.074;2024-03-08T13:17:17;8.40;99.90
21508;DHT22;10915;54.352;9.074;2024-03-08T13:19:46;8.50;99.90
21508;DHT22;10915;54.352;9.074;2024-03-08T13:22:12;8.60;99.90
21508;DHT22;10915;54.352;9.074;2024-03-08T13:24:42;8.70;99.90
21508;DHT22;10915;54.352;9.074;2024-03-08T13:27:08;8.70;99.90
21508;DHT22;10915;54.352;9.074;2024-03-08T13:29:45;8.70;99.90
21508;DHT22;10915;54.352;9.074;2024-03-08T13:32:12;8.70;99.90
21508;DHT22;10915;54.352;9.074;2024-03-08T13:34:41;8.70;99.90
21508;DHT22;10915;54.352;9.074;2024-03-08T13:37:06;8.60;99.90
21508;DHT22;10915;54.352;9.074;2024-03-08T13:39:32;8.50;99.90
21508;DHT22;10915;54.352;9.074;2024-03-08T13:42:07;8.50;99.90
21508;DHT22;10915;54.352;9.074;2024-03-08T13:44:35;8.40;99.90
21508;DHT22;10915;54.352;9.074;2024-03-08T13:47:02;8.30;99.90
21508;DHT22;10915;54.352;9.074;2024-03-08T13:49:30;8.20;99.90
21508;DHT22;10915;54.352;9.074;2024-03-08T13:51:56;8.20;99.90
21508;DHT22;10915;54.352;9.074;2024-03-08T13:54:24;8.20;99.90
21508;DHT22;10915;54.352;9.074;2024-03-08T13:56:50;8.10;99.90
21508;DHT22;10915;54.352;9.074;2024-03-08T13:59:20;8.10;99.90
21508;DHT22;10915;54.352;9.074;2024-03-08T14:01:48;8.00;99.90
21508;DHT22;10915;54.352;9.074;2024-03-08T14:04:14;7.90;99.90
21508;DHT22;10915;54.352;9.074;2024-03-08T14:06:42;7.90;99.90
21508;DHT22;10915;54.352;9.074;2024-03-08T14:09:11;7.70;99.90
21508;DHT22;10915;54.352;9.074;2024-03-08T14:11:45;7.60;99.90
21508;DHT22;10915;54.352;9.074;2024-03-08T14:14:11;7.50;99.90
21508;DHT22;10915;54.352;9.074;2024-03-08T14:16:40;7.40;99.90
21508;DHT22;10915;54.352;9.074;2024-03-08T14:19:06;7.40;99.90
21508;DHT22;10915;54.352;9.074;2024-03-08T14:21:32;7.30;99.90
21508;DHT22;10915;54.352;9.074;2024-03-08T14:23:58;7.30;99.90
21508;DHT22;10915;54.352;9.074;2024-03-08T14:26:24;7.30;99.90
21508;DHT22;10915;54.352;9.074;2024-03-08T14:28:50;7.20;99.90
21508;DHT22;10915;54.352;9.074;2024-03-08T14:31:20;7.30;99.90
21508;DHT22;10915;54.352;9.074;2024-03-08T14:33:46;7.20;99.90
21508;DHT22;10915;54.352;9.074;2024-03-08T14:36:15;7.00;99.90
21508;DHT22;10915;54.352;9.074;2024-03-08T14:38:42;6.90;99.90
21508;DHT22;10915;54.352;9.074;2024-03-08T14:41:08;6.80;99.90
21508;DHT22;10915;54.352;9.074;2024-03-08T14:43:34;6.80;99.90
21508;DHT22;10915;54.352;9.074;2024-03-08T14:46:00;6.70;99.90
21508;DHT22;10915;54.352;9.074;2024-03-08T14:48:25;6.70;99.90
21508;DHT22;10915;54.352;9.074;2024-03-08T14:50:51;6.60;99.90
21508;DHT22;10915;54.352;9.074;2024-03-08T14:53:17;6.60;99.90
21508;DHT22;10915;54.352;9.074;2024-03-08T14:55:44;6.60;99.90
21508;DHT22;10915;54.352;9.074;2024-03-08T14:58:13;6.50;99.90
21508;DHT22;10915;54.352;9.074;2024-03-08T15:00:38;6.40;99.90
21508;DHT22;10915;54.352;9.074;2024-03-08T15:03:05;6.20;99.90
21508;DHT22;10915;54.352;9.074;2024-03-08T15:05:33;6.20;99.90
21508;DHT22;10915;54.352;9.074;2024-03-08T15:08:03;6.20;99.90
21508;DHT22;10915;54.352;9.074;2024-03-08T15:10:35;6.10;99.90
21508;DHT22;10915;54.352;9.074;2024-03-08T15:13:03;6.00;99.90
21508;DHT22;10915;54.352;9.074;2024-03-08T15:15:39;6.00;99.90
21508;DHT22;10915;54.352;9.074;2024-03-08T15:18:08;6.00;99.90
21508;DHT22;10915;54.352;9.074;2024-03-08T15:20:33;5.80;99.90
21508;DHT22;10915;54.352;9.074;2024-03-08T15:23:00;5.70;99.90
21508;DHT22;10915;54.352;9.074;2024-03-08T15:25:25;5.60;99.90
21508;DHT22;10915;54.352;9.074;2024-03-08T15:27:54;5.60;99.90
21508;DHT22;10915;54.352;9.074;2024-03-08T15:30:21;5.50;99.90
21508;DHT22;10915;54.352;9.074;2024-03-08T15:32:56;5.40;99.90
21508;DHT22;10915;54.352;9.074;2024-03-08T15:35:23;5.40;99.90
21508;DHT22;10915;54.352;9.074;2024-03-08T15:37:51;5.30;99.90
21508;DHT22;10915;54.352;9.074;2024-03-08T15:40:18;5.30;99.90
21508;DHT22;10915;54.352;9.074;2024-03-08T15:42:55;5.20;99.90
21508;DHT22;10915;54.352;9.074;2024-03-08T15:45:22;5.20;99.90
21508;DHT22;10915;54.352;9.074;2024-03-08T15:47:54;5.10;99.90
21508;DHT22;10915;54.352;9.074;2024-03-08T15:50:21;4.90;99.90
21508;DHT22;10915;54.352;9.074;2024-03-08T15:52:49;4.80;99.90
21508;DHT22;10915;54.352;9.074;2024-03-08T15:55:16;4.70;99.90